Time;durP1;ratioP1;P1;durP2;ratioP2;P2;SDS_P1;SDS_P2;PMS_P1;PMS_P2;Temp;Humidity;BMP_temperature;BMP_pressure;BME280_temperature;BME280_humidity;BME280_pressure;Samples;Min_cycle;Max_cycle;Signal;HPM_P1;HPM_P2
2022/01/24 19:12:40;;;;;;;15.60;9.60;;;21.30;49.90;;;;;;5108051;27;20497;-74
2022/01/24 19:15:11;;;;;;;24.77;10.27;;;21.30;50.10;;;;;;5135297;27;20526;-75
2022/01/24 19:17:36;;;;;;;20.33;10.45;;;21.30;50.50;;;;;;5131538;27;20050;-72
2022/01/24 19:23:09;;;;;;;19.50;9.73;;;21.30;50.50;;;;;;5109175;28;20047;-75
2022/01/24 19:25:34;;;;;;;16.65;9.13;;;21.30;50.90;;;;;;5105974;28;20475;-74
2022/01/24 19:28:00;;;;;;;15.02;8.52;;;21.30;51.00;;;;;;5128865;27;20047;-72
2022/01/24 19:30:25;;;;;;;16.52;9.25;;;21.30;51.00;;;;;;5104114;28;20040;-73
2022/01/24 19:32:51;;;;;;;15.00;8.55;;;21.30;50.90;;;;;;5114769;28;20046;-74
2022/01/24 19:35:20;;;;;;;14.25;8.82;;;21.30;50.80;;;;;;5102703;28;20048;-77
2022/01/24 19:37:46;;;;;;;15.50;8.63;;;21.30;50.70;;;;;;5111522;28;20474;-74
2022/01/24 19:40:13;;;;;;;14.25;8.68;;;21.40;50.70;;;;;;5144974;27;20050;-76
2022/01/24 19:42:39;;;;;;;12.50;8.13;;;21.40;50.50;;;;;;5145389;27;20047;-75
2022/01/24 19:45:05;;;;;;;19.23;8.35;;;21.40;50.40;;;;;;5103311;28;20043;-75
2022/01/24 19:47:30;;;;;;;20.20;8.55;;;21.40;50.30;;;;;;5098830;28;20101;-77
2022/01/24 19:49:56;;;;;;;13.93;8.32;;;21.40;50.20;;;;;;5102814;28;20086;-80
2022/01/24 19:52:23;;;;;;;14.23;8.23;;;21.50;50.20;;;;;;5097491;28;20063;-76
2022/01/24 19:54:54;;;;;;;13.57;8.10;;;21.50;50.10;;;;;;5097911;28;20047;-78
2022/01/24 19:57:29;;;;;;;13.23;8.48;;;21.50;50.00;;;;;;5082379;28;20056;-76
2022/01/24 19:59:55;;;;;;;13.23;8.02;;;21.50;49.90;;;;;;5107156;27;20075;-75
2022/01/24 20:02:21;;;;;;;12.13;7.70;;;21.50;49.80;;;;;;5099742;28;20090;-75
2022/01/24 20:04:47;;;;;;;13.82;8.15;;;21.50;49.80;;;;;;5127285;27;20039;-75
2022/01/24 20:07:14;;;;;;;14.68;7.93;;;21.50;49.80;;;;;;5099549;28;20609;-74
2022/01/24 20:09:40;;;;;;;12.73;7.75;;;21.50;49.90;;;;;;5112643;27;20032;-78
2022/01/24 20:12:07;;;;;;;14.15;7.75;;;21.60;49.80;;;;;;5100322;28;20079;-78
2022/01/24 20:14:32;;;;;;;13.65;8.18;;;21.60;49.80;;;;;;5130118;27;20153;-75
2022/01/24 20:16:59;;;;;;;11.85;7.50;;;21.60;49.80;;;;;;5130362;27;20059;-74
2022/01/24 20:19:24;;;;;;;11.82;7.82;;;21.60;49.70;;;;;;5094826;28;20079;-83
2022/01/24 20:21:50;;;;;;;16.40;8.57;;;21.60;49.60;;;;;;5097145;28;20064;-79
2022/01/24 20:24:17;;;;;;;12.70;7.35;;;21.60;49.60;;;;;;5086990;28;20403;-75
2022/01/24 20:26:43;;;;;;;11.48;7.30;;;21.60;49.50;;;;;;5110965;27;20040;-75
2022/01/24 20:29:08;;;;;;;10.30;7.13;;;21.60;49.50;;;;;;5082381;28;20489;-75
2022/01/24 20:31:37;;;;;;;12.07;7.40;;;21.60;49.40;;;;;;5083478;28;20057;-78
2022/01/24 20:34:03;;;;;;;;;;;21.70;49.40;;;;;;5115852;27;20512;-79
2022/01/24 20:36:29;;;;;;;12.38;7.40;;;21.70;49.10;;;;;;5101122;28;20421;-77
2022/01/24 20:38:55;;;;;;;11.13;7.22;;;21.70;49.40;;;;;;5085269;28;20044;-80
2022/01/24 20:41:22;;;;;;;12.05;7.05;;;21.70;49.20;;;;;;5115844;27;20074;-81
2022/01/24 20:43:48;;;;;;;11.70;7.40;;;21.70;49.10;;;;;;5119113;27;20087;-79
2022/01/24 20:46:15;;;;;;;9.93;7.07;;;21.70;49.10;;;;;;5120335;27;20422;-76
2022/01/24 20:48:41;;;;;;;10.77;6.95;;;21.70;49.00;;;;;;5086533;28;20502;-77
2022/01/24 20:51:12;;;;;;;10.55;7.28;;;21.70;49.00;;;;;;5086715;28;20127;-74
2022/01/24 20:53:40;;;;;;;12.43;7.18;;;21.70;49.00;;;;;;5082463;28;20048;-75
2022/01/24 20:56:05;;;;;;;12.75;7.65;;;21.70;48.80;;;;;;5080082;28;20058;-74
2022/01/24 20:58:31;;;;;;;10.50;6.82;;;21.70;48.80;;;;;;5085765;28;20028;-75
2022/01/24 21:00:56;;;;;;;10.45;6.93;;;21.80;48.80;;;;;;5085078;28;21661;-78
2022/01/24 21:03:22;;;;;;;10.15;6.93;;;21.70;48.70;;;;;;5119887;27;20102;-80
2022/01/24 21:05:49;;;;;;;10.05;7.28;;;21.70;48.70;;;;;;5084032;28;20803;-73
2022/01/24 21:08:15;;;;;;;9.80;6.88;;;21.70;48.70;;;;;;5086699;28;20028;-74
2022/01/24 21:10:45;;;;;;;8.73;6.57;;;21.80;48.80;;;;;;5084454;28;20833;-77
2022/01/24 21:13:17;;;;;;;10.32;6.38;;;21.70;48.70;;;;;;5087628;28;20616;-77
2022/01/24 21:15:43;;;;;;;11.00;6.95;;;21.70;48.70;;;;;;5082034;28;20067;-77
2022/01/24 21:18:10;;;;;;;10.63;6.95;;;21.70;48.70;;;;;;5084634;28;20546;-75
2022/01/24 21:20:36;;;;;;;9.82;6.63;;;21.70;48.70;;;;;;5084680;28;20048;-77
2022/01/24 21:23:02;;;;;;;10.20;6.25;;;21.70;48.70;;;;;;5086297;28;20028;-82
2022/01/24 21:25:28;;;;;;;10.68;6.57;;;21.70;48.70;;;;;;5119712;27;20036;-74
2022/01/24 21:27:54;;;;;;;10.88;6.60;;;21.70;48.60;;;;;;5112982;27;20050;-77
2022/01/24 21:30:21;;;;;;;9.05;6.25;;;21.70;48.60;;;;;;5084639;28;20788;-79
2022/01/24 21:32:49;;;;;;;8.52;6.13;;;21.80;48.60;;;;;;5090451;28;20959;-77
2022/01/24 21:35:21;;;;;;;12.43;6.47;;;21.70;48.60;;;;;;5063899;28;20081;-80
2022/01/24 21:37:52;;;;;;;11.98;6.88;;;21.70;48.50;;;;;;5091453;28;20407;-77
2022/01/24 21:40:19;;;;;;;8.45;5.82;;;21.70;48.30;;;;;;5083145;28;20036;-77
2022/01/24 21:42:47;;;;;;;8.88;6.15;;;21.80;48.30;;;;;;5084109;28;20131;-73
2022/01/24 21:45:14;;;;;;;8.75;6.00;;;21.80;48.30;;;;;;5083176;28;20040;-76
2022/01/24 21:47:40;;;;;;;9.98;6.50;;;21.80;48.20;;;;;;5086759;28;20487;-77
2022/01/24 21:50:06;;;;;;;8.48;6.32;;;21.80;48.20;;;;;;5082965;28;20134;-75
2022/01/24 21:52:31;;;;;;;12.02;6.88;;;21.80;48.10;;;;;;5084570;28;20044;-75
2022/01/24 21:54:57;;;;;;;8.75;6.03;;;21.80;48.10;;;;;;5114791;27;20763;-77
2022/01/24 21:57:23;;;;;;;9.63;6.43;;;21.80;47.90;;;;;;5085272;28;20040;-74
2022/01/24 21:59:48;;;;;;;9.75;6.50;;;21.80;47.80;;;;;;5084414;28;20131;-76
2022/01/24 22:02:14;;;;;;;8.02;6.35;;;21.80;47.80;;;;;;5114822;27;20157;-77
2022/01/24 22:04:39;;;;;;;10.32;6.00;;;21.80;47.80;;;;;;5085821;28;20036;-74
2022/01/24 22:07:12;;;;;;;8.02;6.00;;;21.80;47.70;;;;;;5083450;28;20570;-75
2022/01/24 22:09:37;;;;;;;11.40;5.97;;;21.80;47.70;;;;;;5084344;28;20461;-77
2022/01/24 22:12:03;;;;;;;8.65;5.70;;;21.80;47.60;;;;;;5083506;28;20083;-77
2022/01/24 22:14:29;;;;;;;8.93;5.75;;;21.80;47.60;;;;;;5116403;27;20056;-77
2022/01/24 22:16:54;;;;;;;7.28;5.47;;;21.80;47.60;;;;;;5083933;28;20048;-75
2022/01/24 22:19:20;;;;;;;9.02;5.60;;;21.80;47.60;;;;;;5082424;28;20028;-75
2022/01/24 22:21:46;;;;;;;8.80;5.80;;;21.80;47.50;;;;;;5117285;27;20155;-76
2022/01/24 22:24:12;;;;;;;8.05;5.45;;;21.80;47.50;;;;;;5082331;28;20081;-75
2022/01/24 22:26:38;;;;;;;7.88;5.50;;;21.90;47.50;;;;;;5085026;28;20048;-76
2022/01/24 22:29:07;;;;;;;7.82;5.95;;;21.80;47.50;;;;;;5083146;28;20048;-76
2022/01/24 22:31:34;;;;;;;8.52;5.93;;;21.80;47.40;;;;;;5081348;28;20131;-76
2022/01/24 22:34:01;;;;;;;10.15;5.85;;;21.90;47.40;;;;;;5083821;28;20060;-76
2022/01/24 22:36:29;;;;;;;9.48;5.43;;;21.90;47.40;;;;;;5082216;28;20043;-77
2022/01/24 22:38:55;;;;;;;11.05;5.38;;;21.80;47.30;;;;;;5116053;27;20044;-76
2022/01/24 22:41:51;;;;;;;8.52;5.78;;;21.80;47.30;;;;;;5114124;27;20933;-75
2022/01/24 22:44:07;;;;;;;7.32;5.40;;;21.80;47.30;;;;;;5099821;28;20510;-75
2022/01/24 22:46:33;;;;;;;8.07;5.25;;;21.90;47.40;;;;;;5083119;28;20024;-78
2022/01/24 22:48:59;;;;;;;8.88;5.90;;;21.90;47.30;;;;;;5115325;27;20039;-79
2022/01/24 22:51:26;;;;;;;9.70;5.88;;;21.90;47.00;;;;;;5086757;28;20048;-81
2022/01/24 22:53:53;;;;;;;10.75;5.97;;;21.90;46.90;;;;;;5120667;27;20041;-79
2022/01/24 22:56:19;;;;;;;8.68;5.50;;;21.80;46.90;;;;;;5114645;27;20570;-75
2022/01/24 22:58:46;;;;;;;8.32;5.93;;;21.90;47.00;;;;;;5087004;28;20236;-79
2022/01/24 23:01:14;;;;;;;9.57;5.68;;;21.80;46.80;;;;;;5085783;28;20036;-77
2022/01/24 23:03:40;;;;;;;8.38;5.68;;;21.80;46.70;;;;;;5117614;27;20147;-77
2022/01/24 23:06:06;;;;;;;7.50;5.55;;;21.90;46.70;;;;;;5087878;28;20040;-72
2022/01/24 23:08:32;;;;;;;8.13;5.72;;;21.80;46.60;;;;;;5081772;28;20051;-73
2022/01/24 23:11:21;;;;;;;6.20;5.53;;;21.90;46.70;;;;;;5081188;28;20055;-74
2022/01/24 23:19:12;;;;;;;6.78;4.82;;;21.80;46.50;;;;;;5087510;28;20086;-72
2022/01/24 23:21:39;;;;;;;7.03;5.47;;;21.80;46.50;;;;;;5103366;28;20039;-73
2022/01/24 23:24:07;;;;;;;7.35;5.20;;;21.80;46.50;;;;;;5089478;28;20040;-73
2022/01/24 23:26:33;;;;;;;6.50;5.00;;;21.80;46.40;;;;;;5126011;27;20044;-73
2022/01/24 23:29:07;;;;;;;5.85;5.03;;;21.80;46.40;;;;;;5090306;28;20044;-74
2022/01/24 23:31:35;;;;;;;6.70;4.75;;;21.80;46.40;;;;;;5092688;28;20131;-74
2022/01/24 23:39:24;;;;;;;5.40;4.80;;;21.80;46.40;;;;;;5091108;28;20403;-72
2022/01/24 23:41:52;;;;;;;7.10;4.53;;;21.90;46.40;;;;;;5087726;28;20047;-72
2022/01/24 23:44:21;;;;;;;6.45;4.70;;;21.80;46.40;;;;;;5093635;28;20039;-75
2022/01/24 23:46:49;;;;;;;;;;;21.80;46.30;;;;;;5093372;28;20380;-76
2022/01/24 23:49:17;;;;;;;7.63;5.00;;;21.80;46.30;;;;;;5130032;27;19923;-76
2022/01/24 23:51:43;;;;;;;6.68;5.22;;;21.80;46.40;;;;;;5079883;28;20036;-76
2022/01/24 23:54:09;;;;;;;6.05;5.00;;;21.80;46.30;;;;;;5113351;27;20075;-75
2022/01/24 23:56:45;;;;;;;6.25;4.60;;;21.80;46.30;;;;;;5093544;28;20506;-76
